createdAt,value
2018-04-25T00:02:02.690Z,96.10
2018-04-25T00:04:30.574Z,96.30
2018-04-25T00:06:58.530Z,96.30
2018-04-25T00:09:26.428Z,96.30
2018-04-25T00:11:53.988Z,96.30
2018-04-25T00:14:21.491Z,96.00
2018-04-25T00:16:48.988Z,96.10
2018-04-25T00:19:16.487Z,96.00
2018-04-25T00:21:43.962Z,95.80
2018-04-25T00:24:11.475Z,95.80
2018-04-25T00:26:39.009Z,95.70
2018-04-25T00:29:06.916Z,95.90
2018-04-25T00:31:34.421Z,95.90
2018-04-25T00:34:02.346Z,95.80
2018-04-25T00:36:29.847Z,95.80
2018-04-25T00:38:58.109Z,95.70
2018-04-25T00:41:26.337Z,95.70
2018-04-25T00:43:54.347Z,95.60
2018-04-25T00:46:21.840Z,95.60
2018-04-25T00:48:49.329Z,95.50
2018-04-25T00:51:16.847Z,95.90
2018-04-25T00:53:44.737Z,95.70
2018-04-25T00:56:12.273Z,95.70
2018-04-25T00:58:39.809Z,95.90
2018-04-25T01:01:07.334Z,95.90
2018-04-25T01:03:34.858Z,95.90
2018-04-25T01:06:02.357Z,95.90
2018-04-25T01:08:29.861Z,95.90
2018-04-25T01:10:57.747Z,95.80
2018-04-25T01:13:25.222Z,95.80
2018-04-25T01:15:52.719Z,95.80
2018-04-25T01:18:20.608Z,95.50
2018-04-25T01:20:48.508Z,95.40
2018-04-25T01:23:19.877Z,95.30
2018-04-25T01:25:47.365Z,95.20
2018-04-25T01:28:18.092Z,95.10
2018-04-25T01:30:48.890Z,95.10
2018-04-25T01:33:22.618Z,94.80
2018-04-25T01:36:08.475Z,94.70
2018-04-25T01:38:38.690Z,94.60
2018-04-25T01:41:08.109Z,94.60
2018-04-25T01:43:35.631Z,94.60
2018-04-25T01:46:06.600Z,94.70
2018-04-25T01:51:40.611Z,94.60
2018-04-25T01:54:20.127Z,94.40
2018-04-25T01:56:59.383Z,94.30
2018-04-25T01:59:38.606Z,94.20
2018-04-25T02:02:05.703Z,94.20
2018-04-25T02:04:33.348Z,93.80
2018-04-25T02:07:00.921Z,93.90
2018-04-25T02:09:28.434Z,93.60
2018-04-25T02:11:55.932Z,93.30
2018-04-25T02:14:23.503Z,92.80
2018-04-25T02:16:51.031Z,92.70
2018-04-25T02:19:18.541Z,92.60
2018-04-25T02:21:46.413Z,92.70
2018-04-25T02:24:14.367Z,92.50
2018-04-25T02:26:41.806Z,92.50
2018-04-25T02:29:09.387Z,92.30
2018-04-25T02:31:36.820Z,92.30
2018-04-25T02:34:04.329Z,92.30
2018-04-25T02:36:31.834Z,92.10
2018-04-25T02:38:59.323Z,91.60
2018-04-25T02:41:27.211Z,90.90
2018-04-25T02:43:54.714Z,90.90
2018-04-25T02:46:22.231Z,90.50
2018-04-25T02:48:49.728Z,90.60
2018-04-25T02:51:17.235Z,90.50
2018-04-25T02:53:44.738Z,90.40
2018-04-25T02:56:12.214Z,90.20
2018-04-25T02:58:39.724Z,90.10
2018-04-25T03:01:07.212Z,89.90
2018-04-25T03:03:34.706Z,89.60
2018-04-25T03:06:02.607Z,89.20
2018-04-25T03:08:30.121Z,89.20
2018-04-25T03:10:58.001Z,88.80
2018-04-25T03:13:25.887Z,88.50
2018-04-25T03:15:53.410Z,88.50
2018-04-25T03:18:21.301Z,88.50
2018-04-25T03:20:48.800Z,88.50
2018-04-25T03:23:16.299Z,88.30
2018-04-25T03:25:44.181Z,88.30
2018-04-25T03:28:11.696Z,88.30
2018-04-25T03:30:39.200Z,88.10
2018-04-25T03:33:06.696Z,87.70
2018-04-25T03:35:34.213Z,87.50
2018-04-25T03:38:01.712Z,87.70
2018-04-25T03:40:29.224Z,87.40
2018-04-25T03:42:57.454Z,87.30
2018-04-25T03:45:24.956Z,87.60
2018-04-25T03:47:52.461Z,87.40
2018-04-25T03:50:19.962Z,87.40
2018-04-25T03:52:47.849Z,87.60
2018-04-25T03:55:15.344Z,87.60
2018-04-25T03:57:42.852Z,87.50
2018-04-25T04:00:10.411Z,87.80
2018-04-25T04:02:37.864Z,87.70
2018-04-25T04:05:05.377Z,87.80
2018-04-25T04:07:32.938Z,87.90
2018-04-25T04:10:00.417Z,87.90
2018-04-25T04:12:28.313Z,88.20
2018-04-25T04:14:55.810Z,88.20
2018-04-25T04:17:23.308Z,88.10
2018-04-25T04:19:51.208Z,88.30
2018-04-25T04:22:18.706Z,88.30
2018-04-25T04:24:46.241Z,88.40
2018-04-25T04:27:13.721Z,88.40
2018-04-25T04:29:41.219Z,88.50
2018-04-25T04:32:08.709Z,88.70
2018-04-25T04:34:36.218Z,88.90
2018-04-25T04:37:03.719Z,88.80
2018-04-25T04:39:31.214Z,88.70
2018-04-25T04:41:59.118Z,88.70
2018-04-25T04:44:26.615Z,88.70
2018-04-25T04:46:54.119Z,88.80
2018-04-25T04:49:21.605Z,88.70
2018-04-25T04:51:49.101Z,88.90
2018-04-25T04:54:16.589Z,88.80
2018-04-25T04:56:44.479Z,88.40
2018-04-25T04:59:11.978Z,88.40
2018-04-25T05:01:39.454Z,88.50
2018-04-25T05:04:06.960Z,88.20
2018-04-25T05:06:34.456Z,88.40
2018-04-25T05:09:01.965Z,88.50
2018-04-25T05:11:29.464Z,88.70
2018-04-25T05:13:56.937Z,88.70
2018-04-25T05:16:24.431Z,88.90
2018-04-25T05:18:51.940Z,88.60
2018-04-25T05:21:19.462Z,88.20
2018-04-25T05:23:46.960Z,88.40
2018-04-25T05:26:14.444Z,88.40
2018-04-25T05:28:41.953Z,87.90
2018-04-25T05:31:09.437Z,88.00
2018-04-25T05:33:36.948Z,88.30
2018-04-25T05:36:04.485Z,88.20
2018-04-25T05:38:31.966Z,88.00
2018-04-25T05:41:00.769Z,87.70
2018-04-25T05:43:28.272Z,88.00
2018-04-25T05:45:58.354Z,87.70
2018-04-25T05:48:25.797Z,87.70
2018-04-25T05:50:53.302Z,88.00
2018-04-25T05:53:22.301Z,88.70
2018-04-25T05:55:49.837Z,88.70
2018-04-25T05:58:17.373Z,88.60
2018-04-25T06:00:44.877Z,88.00
2018-04-25T06:03:12.391Z,88.40
2018-04-25T06:05:39.892Z,88.10
2018-04-25T06:08:07.398Z,87.60
2018-04-25T06:10:34.877Z,87.70
2018-04-25T06:13:02.353Z,87.70
2018-04-25T06:15:30.256Z,87.90
2018-04-25T06:17:57.749Z,87.80
2018-04-25T06:20:25.269Z,87.60
2018-04-25T06:22:52.750Z,86.90
2018-04-25T06:25:20.235Z,86.40
2018-04-25T06:27:47.736Z,85.10
2018-04-25T06:30:15.250Z,85.40
2018-04-25T06:32:43.147Z,85.80
2018-04-25T06:35:10.645Z,85.80
2018-04-25T06:37:38.129Z,87.00
2018-04-25T06:40:05.636Z,89.40
2018-04-25T06:42:33.152Z,91.40
2018-04-25T06:45:01.062Z,95.70
2018-04-25T06:47:28.538Z,95.70
2018-04-25T06:49:56.017Z,97.00
2018-04-25T06:52:23.527Z,97.00
2018-04-25T06:54:51.015Z,97.00
2018-04-25T06:57:18.554Z,97.00
2018-04-25T06:59:46.075Z,97.00
2018-04-25T07:02:13.953Z,97.00
2018-04-25T07:04:41.488Z,97.00
2018-04-25T07:07:09.953Z,97.00
2018-04-25T07:09:37.448Z,97.00
2018-04-25T07:12:04.963Z,97.00
2018-04-25T07:14:32.521Z,97.00
2018-04-25T07:17:00.006Z,97.00
2018-04-25T07:19:27.884Z,97.00
2018-04-25T07:21:55.391Z,97.00
2018-04-25T07:24:22.889Z,97.00
2018-04-25T07:26:50.780Z,96.10
2018-04-25T07:29:18.277Z,96.10
2018-04-25T07:31:45.789Z,95.90
2018-04-25T07:34:13.286Z,95.30
2018-04-25T07:36:40.796Z,94.30
2018-04-25T07:39:08.309Z,93.80
2018-04-25T07:41:35.806Z,94.70
2018-04-25T07:44:03.324Z,93.70
2018-04-25T07:46:30.804Z,93.70
2018-04-25T07:48:58.290Z,93.40
2018-04-25T07:51:25.798Z,92.50
2018-04-25T07:53:53.317Z,92.80
2018-04-25T07:56:20.821Z,92.80
2018-04-25T07:58:48.333Z,91.80
2018-04-25T08:01:15.817Z,91.60
2018-04-25T08:03:43.325Z,90.70
2018-04-25T08:06:10.821Z,90.10
2018-04-25T08:08:38.348Z,90.10
2018-04-25T08:11:05.849Z,89.90
2018-04-25T08:13:45.145Z,89.40
2018-04-25T08:16:24.524Z,90.30
2018-04-25T08:19:03.960Z,91.10
2018-04-25T08:21:40.980Z,91.30
2018-04-25T08:24:08.852Z,91.70
2018-04-25T08:26:36.363Z,91.70
2018-04-25T08:29:03.872Z,91.60
2018-04-25T08:31:31.379Z,92.30
2018-04-25T08:33:58.877Z,92.70
2018-04-25T08:36:26.769Z,90.50
2018-04-25T08:38:54.284Z,90.50
2018-04-25T08:41:22.161Z,90.00
2018-04-25T08:43:50.070Z,91.30
2018-04-25T08:46:17.585Z,91.30
2018-04-25T08:48:45.501Z,92.90
2018-04-25T08:51:13.018Z,92.90
2018-04-25T08:53:40.898Z,94.30
2018-04-25T08:56:08.420Z,94.30
2018-04-25T08:58:35.903Z,94.00
2018-04-25T09:01:03.395Z,92.60
2018-04-25T09:03:30.877Z,91.80
2018-04-25T09:05:58.389Z,90.50
2018-04-25T09:08:25.899Z,90.00
2018-04-25T09:10:53.388Z,87.80
2018-04-25T09:13:20.886Z,87.70
2018-04-25T09:15:48.384Z,86.10
2018-04-25T09:18:16.275Z,83.90
2018-04-25T09:20:43.795Z,84.00
2018-04-25T09:23:11.338Z,83.00
2018-04-25T09:25:38.830Z,81.00
2018-04-25T09:28:06.710Z,80.70
2018-04-25T09:30:34.220Z,80.70
2018-04-25T09:33:01.718Z,81.20
2018-04-25T09:35:29.248Z,82.20
2018-04-25T09:37:56.731Z,82.70
2018-04-25T09:40:24.240Z,82.70
2018-04-25T09:42:51.730Z,83.40
2018-04-25T09:45:19.272Z,81.70
2018-04-25T09:47:47.177Z,80.90
2018-04-25T09:50:14.677Z,80.90
2018-04-25T09:52:42.192Z,79.00
2018-04-25T09:55:09.708Z,78.60
2018-04-25T09:57:37.240Z,78.30
2018-04-25T10:00:04.739Z,78.40
2018-04-25T10:02:33.156Z,79.50
2018-04-25T10:05:00.675Z,80.20
2018-04-25T10:07:28.205Z,80.10
2018-04-25T10:09:55.732Z,78.30
2018-04-25T10:12:23.214Z,78.20
2018-04-25T10:14:50.711Z,78.00
2018-04-25T10:17:18.648Z,75.70
2018-04-25T10:19:46.106Z,75.60
2018-04-25T10:22:13.597Z,75.60
2018-04-25T10:24:41.497Z,75.00
2018-04-25T10:27:09.000Z,75.00
2018-04-25T10:29:36.537Z,74.40
2018-04-25T10:32:04.044Z,74.40
2018-04-25T10:34:31.513Z,74.00
2018-04-25T10:36:59.006Z,73.30
2018-04-25T10:39:26.486Z,73.00
2018-04-25T10:41:53.992Z,72.10
2018-04-25T10:44:21.530Z,72.90
2018-04-25T10:46:49.420Z,74.10
2018-04-25T10:49:16.910Z,74.10
2018-04-25T10:51:44.424Z,75.00
2018-04-25T10:54:11.944Z,75.50
2018-04-25T10:56:39.444Z,76.50
2018-04-25T10:59:07.871Z,77.00
2018-04-25T11:01:35.390Z,77.20
2018-04-25T11:04:02.903Z,76.90
2018-04-25T11:06:30.400Z,76.90
2018-04-25T11:08:57.882Z,77.30
2018-04-25T11:11:25.377Z,77.00
2018-04-25T11:13:53.116Z,77.50
2018-04-25T11:16:20.597Z,77.30
2018-04-25T11:18:48.096Z,77.20
2018-04-25T11:21:15.604Z,78.20
2018-04-25T11:23:43.112Z,77.00
2018-04-25T11:26:10.623Z,77.30
2018-04-25T11:28:38.110Z,77.70
2018-04-25T11:31:05.653Z,77.90
2018-04-25T11:33:33.534Z,77.50
2018-04-25T11:36:01.014Z,77.50
2018-04-25T11:38:28.534Z,78.00
2018-04-25T11:40:56.440Z,78.20
2018-04-25T11:43:23.966Z,78.20
2018-04-25T11:45:51.883Z,78.40
2018-04-25T11:48:19.371Z,78.40
2018-04-25T11:50:46.902Z,78.90
2018-04-25T11:53:14.400Z,79.10
2018-04-25T11:55:41.915Z,79.30
2018-04-25T11:58:09.436Z,79.40
2018-04-25T12:00:36.940Z,78.10
2018-04-25T12:03:04.459Z,77.00
2018-04-25T12:05:31.970Z,76.90
2018-04-25T12:07:59.476Z,76.40
2018-04-25T12:10:26.991Z,76.50
2018-04-25T12:12:54.909Z,77.30
2018-04-25T12:15:22.457Z,77.30
2018-04-25T12:17:49.969Z,77.70
2018-04-25T12:20:17.877Z,76.10
2018-04-25T12:22:45.407Z,76.10
2018-04-25T12:25:13.310Z,76.20
2018-04-25T12:27:41.071Z,76.20
2018-04-25T12:30:08.568Z,76.80
2018-04-25T12:32:36.060Z,76.20
2018-04-25T12:35:03.969Z,75.90
2018-04-25T12:37:31.460Z,75.90
2018-04-25T12:39:59.831Z,75.90
2018-04-25T12:42:27.337Z,76.80
2018-04-25T12:44:54.824Z,76.90
2018-04-25T12:47:22.773Z,77.00
2018-04-25T12:49:50.304Z,77.00
2018-04-25T12:52:18.182Z,75.90
2018-04-25T12:54:45.656Z,75.90
2018-04-25T12:57:13.166Z,75.70
2018-04-25T12:59:40.668Z,75.40
2018-04-25T13:02:08.181Z,75.20
2018-04-25T13:04:36.084Z,75.30
2018-04-25T13:07:03.585Z,75.30
2018-04-25T13:09:31.101Z,74.80
2018-04-25T13:11:58.608Z,75.20
2018-04-25T13:14:26.197Z,74.30
2018-04-25T13:16:54.291Z,75.00
2018-04-25T13:19:21.840Z,75.90
2018-04-25T13:21:49.364Z,76.50
2018-04-25T13:24:17.280Z,76.40
2018-04-25T13:26:44.781Z,76.40
2018-04-25T13:29:12.327Z,74.90
2018-04-25T13:31:39.821Z,74.90
2018-04-25T13:34:07.354Z,74.70
2018-04-25T13:36:37.632Z,74.60
2018-04-25T13:39:05.177Z,74.30
2018-04-25T13:41:32.694Z,74.90
2018-04-25T13:44:00.193Z,74.80
2018-04-25T13:46:27.727Z,74.50
2018-04-25T13:48:55.205Z,74.90
2018-04-25T13:51:22.776Z,74.90
2018-04-25T13:53:50.294Z,74.50
2018-04-25T13:56:17.850Z,74.50
2018-04-25T13:58:45.809Z,73.30
2018-04-25T14:01:13.303Z,73.30
2018-04-25T14:03:40.798Z,74.10
2018-04-25T14:06:08.391Z,74.40
2018-04-25T14:08:36.338Z,70.80
2018-04-25T14:11:03.829Z,70.80
2018-04-25T14:13:31.763Z,70.10
2018-04-25T14:15:59.265Z,70.20
2018-04-25T14:18:26.790Z,69.80
2018-04-25T14:20:54.516Z,69.60
2018-04-25T14:23:22.063Z,70.10
2018-04-25T14:25:49.587Z,70.30
2018-04-25T14:28:17.110Z,70.20
2018-04-25T14:30:44.610Z,70.20
2018-04-25T14:33:12.518Z,71.30
2018-04-25T14:35:40.069Z,71.30
2018-04-25T14:38:07.568Z,72.30
2018-04-25T14:40:35.058Z,72.90
2018-04-25T14:43:02.574Z,73.30
2018-04-25T14:45:30.095Z,73.10
2018-04-25T14:47:57.581Z,73.80
2018-04-25T14:50:25.068Z,73.20
2018-04-25T14:52:52.974Z,72.20
2018-04-25T14:55:20.485Z,72.20
2018-04-25T14:57:47.993Z,71.00
2018-04-25T15:00:15.900Z,71.00
2018-04-25T15:02:43.417Z,71.10
2018-04-25T15:05:10.960Z,71.60
2018-04-25T15:07:38.470Z,72.40
2018-04-25T15:10:06.097Z,73.60
2018-04-25T15:12:33.582Z,73.70
2018-04-25T15:15:01.078Z,74.30
2018-04-25T15:17:28.604Z,75.00
2018-04-25T15:19:56.147Z,75.40
2018-04-25T15:22:23.655Z,75.60
2018-04-25T15:24:51.137Z,75.70
2018-04-25T15:27:18.663Z,76.10
2018-04-25T15:29:46.550Z,77.00
2018-04-25T15:32:14.107Z,77.00
2018-04-25T15:34:41.742Z,76.80
2018-04-25T15:37:09.285Z,77.00
2018-04-25T15:39:36.776Z,76.20
2018-04-25T15:42:05.938Z,75.90
2018-04-25T15:44:33.426Z,75.10
2018-04-25T15:47:00.927Z,75.40
2018-04-25T15:49:28.421Z,74.50
2018-04-25T15:51:56.321Z,72.30
2018-04-25T15:54:23.823Z,72.30
2018-04-25T15:56:51.314Z,71.90
2018-04-25T15:59:21.877Z,72.60
2018-04-25T16:01:49.379Z,72.60
2018-04-25T16:04:16.884Z,73.30
2018-04-25T16:06:44.395Z,73.30
2018-04-25T16:09:11.921Z,74.20
2018-04-25T16:11:39.437Z,74.50
2018-04-25T16:14:06.987Z,74.10
2018-04-25T16:16:35.110Z,73.60
2018-04-25T16:19:03.120Z,74.00
2018-04-25T16:21:31.120Z,73.90
2018-04-25T16:23:58.643Z,73.90
2018-04-25T16:26:26.654Z,73.10
2018-04-25T16:28:54.160Z,73.10
2018-04-25T16:31:21.697Z,73.50
2018-04-25T16:33:49.200Z,73.60
2018-04-25T16:36:17.127Z,73.80
2018-04-25T16:38:44.687Z,73.80
2018-04-25T16:41:12.205Z,74.00
2018-04-25T16:43:39.739Z,74.40
2018-04-25T16:46:07.655Z,74.90
2018-04-25T16:48:35.181Z,74.90
2018-04-25T16:51:02.698Z,74.80
2018-04-25T16:53:30.263Z,74.20
2018-04-25T16:55:57.749Z,73.90
2018-04-25T16:58:25.231Z,74.30
2018-04-25T17:00:52.722Z,73.30
2018-04-25T17:03:20.212Z,73.80
2018-04-25T17:05:48.097Z,73.00
2018-04-25T17:08:15.613Z,73.00
2018-04-25T17:10:43.101Z,73.10
2018-04-25T17:13:10.596Z,72.70
2018-04-25T17:15:38.100Z,72.80
2018-04-25T17:18:06.061Z,73.10
2018-04-25T17:20:33.976Z,73.50
2018-04-25T17:23:01.600Z,73.40
2018-04-25T17:25:29.064Z,73.60
2018-04-25T17:27:56.549Z,74.10
2018-04-25T17:30:24.071Z,74.30
2018-04-25T17:32:51.953Z,74.70
2018-04-25T17:35:19.452Z,74.70
2018-04-25T17:37:47.032Z,75.00
2018-04-25T17:40:14.577Z,75.20
2018-04-25T17:42:42.169Z,75.50
2018-04-25T17:45:10.482Z,75.70
2018-04-25T17:47:38.035Z,75.80
2018-04-25T17:50:06.125Z,76.50
2018-04-25T17:52:33.625Z,76.90
2018-04-25T17:55:01.513Z,77.00
2018-04-25T17:57:29.096Z,77.00
2018-04-25T17:59:56.937Z,77.50
2018-04-25T18:02:24.417Z,77.50
2018-04-25T18:04:51.906Z,77.60
2018-04-25T18:07:19.687Z,77.70
2018-04-25T18:09:47.538Z,77.80
2018-04-25T18:12:15.049Z,77.90
2018-04-25T18:14:42.547Z,78.00
2018-04-25T18:17:10.081Z,78.90
2018-04-25T18:19:37.641Z,79.30
2018-04-25T18:22:05.122Z,79.60
2018-04-25T18:24:32.623Z,80.30
2018-04-25T18:27:00.134Z,80.30
2018-04-25T18:29:27.614Z,80.30
2018-04-25T18:31:55.101Z,80.80
2018-04-25T18:34:22.623Z,81.50
2018-04-25T18:36:50.139Z,81.50
2018-04-25T18:39:17.668Z,82.00
2018-04-25T18:41:45.250Z,82.30
2018-04-25T18:44:13.071Z,82.70
2018-04-25T18:46:40.608Z,83.00
2018-04-25T18:49:08.097Z,83.10
2018-04-25T18:51:36.000Z,83.60
2018-04-25T18:54:03.481Z,83.60
2018-04-25T18:56:31.113Z,83.80
2018-04-25T18:58:59.259Z,84.10
2018-04-25T19:01:30.005Z,83.80
2018-04-25T19:03:57.772Z,83.80
2018-04-25T19:06:25.422Z,83.80
2018-04-25T19:08:53.252Z,83.90
2018-04-25T19:11:20.882Z,84.00
2018-04-25T19:13:48.458Z,84.50
2018-04-25T19:16:17.370Z,84.80
2018-04-25T19:18:44.926Z,84.80
2018-04-25T19:21:12.441Z,84.70
2018-04-25T19:23:39.975Z,85.10
2018-04-25T19:26:07.508Z,85.90
2018-04-25T19:28:35.315Z,86.60
2018-04-25T19:31:02.950Z,86.80
2018-04-25T19:33:31.133Z,86.50
2018-04-25T19:35:59.616Z,86.50
2018-04-25T19:38:27.210Z,87.10
2018-04-25T19:43:29.253Z,87.60
2018-04-25T19:45:56.848Z,87.60
2018-04-25T19:48:24.439Z,87.90
2018-04-25T19:50:52.093Z,88.00
2018-04-25T19:53:20.401Z,88.40
2018-04-25T19:55:47.966Z,89.20
2018-04-25T19:58:15.525Z,89.40
2018-04-25T20:00:43.360Z,90.00
2018-04-25T20:03:11.045Z,90.20
2018-04-25T20:05:38.680Z,89.90
2018-04-25T20:08:06.279Z,90.00
2018-04-25T20:10:33.927Z,90.00
2018-04-25T20:13:01.505Z,89.70
2018-04-25T20:15:29.071Z,90.30
2018-04-25T20:17:56.573Z,90.00
2018-04-25T20:20:24.078Z,89.90
2018-04-25T20:22:51.845Z,89.90
2018-04-25T20:25:19.319Z,89.60
2018-04-25T20:27:46.812Z,89.70
2018-04-25T20:30:14.323Z,89.90
2018-04-25T20:32:41.812Z,90.00
2018-04-25T20:35:09.345Z,89.90
2018-04-25T20:37:36.832Z,89.60
2018-04-25T20:40:05.448Z,89.50
2018-04-25T20:42:34.503Z,88.50
2018-04-25T20:45:02.068Z,88.50
2018-04-25T20:47:29.592Z,88.10
2018-04-25T20:49:57.053Z,87.90
2018-04-25T20:52:24.550Z,87.70
2018-04-25T20:54:52.031Z,87.20
2018-04-25T20:57:19.906Z,86.80
2018-04-25T20:59:47.445Z,86.80
2018-04-25T21:02:15.419Z,86.70
2018-04-25T21:04:42.946Z,86.70
2018-04-25T21:07:10.422Z,86.70
2018-04-25T21:09:38.297Z,86.70
2018-04-25T21:12:06.197Z,86.60
2018-04-25T21:14:33.751Z,86.60
2018-04-25T21:17:01.317Z,86.50
2018-04-25T21:19:30.874Z,86.50
2018-04-25T21:21:58.873Z,86.80
2018-04-25T21:24:31.764Z,86.80
2018-04-25T21:26:59.384Z,86.80
2018-04-25T21:29:27.360Z,86.70
2018-04-25T21:31:55.293Z,86.70
2018-04-25T21:34:22.816Z,86.70
2018-04-25T21:36:50.297Z,86.60
2018-04-25T21:39:17.827Z,86.60
2018-04-25T21:41:45.343Z,86.50
2018-04-25T21:44:12.873Z,86.60
2018-04-25T21:46:40.384Z,86.40
2018-04-25T21:49:07.892Z,86.10
2018-04-25T21:51:35.415Z,86.10
2018-04-25T21:54:02.924Z,85.10
2018-04-25T21:56:30.464Z,85.30
2018-04-25T21:58:57.948Z,85.60
2018-04-25T22:01:25.439Z,85.80
2018-04-25T22:03:52.938Z,85.80
2018-04-25T22:06:20.463Z,86.00
2018-04-25T22:08:47.946Z,85.30
2018-04-25T22:11:15.433Z,84.50
2018-04-25T22:13:42.946Z,84.40
2018-04-25T22:16:10.426Z,84.00
2018-04-25T22:18:37.946Z,83.80
2018-04-25T22:21:05.464Z,84.50
2018-04-25T22:23:33.393Z,86.10
2018-04-25T22:26:00.944Z,86.10
2018-04-25T22:28:28.431Z,86.20
2018-04-25T22:30:55.948Z,86.40
2018-04-25T22:33:23.452Z,87.00
2018-04-25T22:35:51.031Z,86.50
2018-04-25T22:38:18.610Z,86.80
2018-04-25T22:40:46.100Z,85.90
2018-04-25T22:43:13.612Z,85.50
2018-04-25T22:45:41.117Z,85.20
2018-04-25T22:48:08.611Z,84.50
2018-04-25T22:50:36.101Z,85.20
2018-04-25T22:53:03.597Z,85.50
2018-04-25T22:55:31.151Z,85.20
2018-04-25T22:57:58.658Z,85.30
2018-04-25T23:00:26.196Z,85.50
2018-04-25T23:02:54.179Z,86.10
2018-04-25T23:05:22.170Z,86.10
2018-04-25T23:07:50.125Z,86.10
2018-04-25T23:10:18.096Z,86.40
2018-04-25T23:12:45.628Z,86.40
2018-04-25T23:15:13.192Z,86.40
2018-04-25T23:17:42.367Z,86.50
2018-04-25T23:20:09.959Z,86.50
2018-04-25T23:22:38.006Z,86.10
2018-04-25T23:25:06.033Z,86.00
2018-04-25T23:27:33.963Z,86.00
2018-04-25T23:30:01.578Z,86.00
2018-04-25T23:32:29.139Z,86.20
2018-04-25T23:34:56.622Z,86.00
2018-04-25T23:37:24.107Z,86.00
2018-04-25T23:39:51.988Z,86.60
2018-04-25T23:42:19.490Z,86.60
2018-04-25T23:44:46.990Z,87.10
2018-04-25T23:47:21.079Z,87.70
2018-04-25T23:49:48.658Z,87.60
2018-04-25T23:52:20.053Z,87.90
2018-04-25T23:54:47.717Z,88.20
2018-04-25T23:57:15.301Z,88.50
2018-04-25T23:59:43.298Z,89.30
